Terminal Aerodrome Forecast
Issued by NWS Rapid City, SD

Home | Current Version | Previous Version | Text Only | Print | Product List | Glossary Off
Versions: 1 2 3 4 5 6 7 8 9 10 11 12 13 14 15

000
FTUS43 KUNR 282300
TAFRAP
TAF
KRAP 282320Z 2900/2924 31018G30KT P6SM SCT130 BKN250
     FM290200 33038G50KT P6SM SCT100 BKN200
     FM291000 33030G45KT P6SM SCT250
     FM291400 33018G30KT P6SM SKC
     FM291800 34018KT P6SM SKC=

USA.gov is the U.S. government's official web portal to all federal, state and local government web resources and services.